Time;durP1;ratioP1;P1;durP2;ratioP2;P2;SDS_P1;SDS_P2;PMS_P1;PMS_P2;Temp;Humidity;BMP_temperature;BMP_pressure;BME280_temperature;BME280_humidity;BME280_pressure;Samples;Min_cycle;Max_cycle;Signal;HPM_P1;HPM_P2
2021/03/25 00:01:13;;;;;;;60.22;31.05;;;6.10;86.60;;;;;;4877165;29;20472;-90
2021/03/25 00:03:39;;;;;;;60.42;32.58;;;6.00;86.60;;;;;;4881612;29;20029;-90
2021/03/25 00:06:06;;;;;;;56.58;31.63;;;6.00;86.50;;;;;;4881563;29;20029;-90
2021/03/25 00:08:32;;;;;;;59.70;31.90;;;6.00;86.50;;;;;;4865161;29;20037;-90
2021/03/25 00:10:58;;;;;;;64.22;33.47;;;6.00;86.80;;;;;;4877426;29;20108;-91
2021/03/25 00:13:24;;;;;;;67.00;33.20;;;5.90;87.00;;;;;;4878542;29;20120;-90
2021/03/25 00:15:50;;;;;;;68.75;33.03;;;5.90;87.00;;;;;;4876890;29;20093;-90
2021/03/25 00:18:16;;;;;;;69.85;32.60;;;6.00;87.70;;;;;;4859700;29;20558;-89
2021/03/25 00:20:43;;;;;;;75.03;35.88;;;6.00;87.20;;;;;;4863160;29;20028;-90
2021/03/25 00:23:09;;;;;;;64.78;32.28;;;6.00;86.80;;;;;;4879647;29;20077;-90
2021/03/25 00:25:36;;;;;;;74.78;34.38;;;5.90;87.30;;;;;;4880870;29;20025;-90
2021/03/25 00:28:03;;;;;;;62.00;31.35;;;5.90;87.60;;;;;;4868398;29;20602;-90
2021/03/25 00:30:31;;;;;;;74.80;36.85;;;5.90;88.20;;;;;;4876285;29;20446;-91
2021/03/25 00:32:59;;;;;;;71.70;37.22;;;5.90;87.60;;;;;;4880034;29;20025;-90
2021/03/25 00:35:26;;;;;;;90.43;37.33;;;6.00;87.30;;;;;;4872043;29;20068;-89
2021/03/25 00:37:52;;;;;;;79.53;36.72;;;5.90;87.40;;;;;;4882789;29;20079;-90
2021/03/25 00:40:18;;;;;;;81.60;37.58;;;5.90;87.20;;;;;;4876486;29;20392;-90
2021/03/25 00:42:44;;;;;;;83.20;37.40;;;5.90;87.70;;;;;;4890484;29;20368;-90
2021/03/25 00:45:16;;;;;;;82.90;36.30;;;5.90;87.50;;;;;;4881717;29;20040;-90
2021/03/25 00:47:43;;;;;;;72.28;36.35;;;5.90;87.70;;;;;;4859351;29;20029;-90
2021/03/25 00:50:14;;;;;;;72.78;33.08;;;5.90;88.10;;;;;;4879164;29;20096;-90
2021/03/25 00:52:39;;;;;;;81.35;35.40;;;5.90;88.20;;;;;;4858992;29;20040;-90
2021/03/25 00:55:06;;;;;;;69.43;36.92;;;6.00;87.80;;;;;;4854163;29;20174;-90
2021/03/25 00:57:32;;;;;;;73.40;35.20;;;5.90;87.20;;;;;;4857442;29;20487;-90
2021/03/25 00:59:57;;;;;;;65.72;36.00;;;5.90;87.70;;;;;;4879109;29;20062;-90
2021/03/25 01:02:23;;;;;;;61.33;32.40;;;5.90;87.80;;;;;;4865086;29;20021;-90
2021/03/25 01:04:49;;;;;;;61.75;30.67;;;6.00;87.40;;;;;;4877810;29;20119;-91
2021/03/25 01:07:24;;;;;;;56.13;30.73;;;6.00;87.50;;;;;;4878376;29;20078;-89
2021/03/25 01:09:50;;;;;;;63.05;34.22;;;6.10;87.00;;;;;;4875824;29;20429;-90
2021/03/25 01:12:16;;;;;;;63.88;33.03;;;6.00;86.90;;;;;;4878639;29;20081;-89
2021/03/25 01:14:41;;;;;;;65.57;33.53;;;6.00;87.20;;;;;;4861745;29;20021;-89
2021/03/25 01:17:07;;;;;;;62.55;32.75;;;6.00;87.20;;;;;;4878724;29;20048;-90
2021/03/25 01:19:33;;;;;;;58.85;33.03;;;6.00;87.70;;;;;;4878193;29;20484;-91
2021/03/25 01:22:00;;;;;;;58.60;30.25;;;6.00;87.40;;;;;;4876972;29;20049;-90
2021/03/25 01:24:26;;;;;;;64.75;33.38;;;5.90;87.40;;;;;;4863680;29;20029;-90
2021/03/25 01:26:52;;;;;;;61.13;32.70;;;5.90;87.90;;;;;;4879724;29;20029;-89
2021/03/25 01:29:19;;;;;;;60.72;32.88;;;5.90;88.20;;;;;;4879135;29;20744;-89
2021/03/25 01:31:45;;;;;;;66.15;35.78;;;5.80;88.00;;;;;;4864978;29;20040;-90
2021/03/25 01:34:16;;;;;;;71.47;36.40;;;5.80;88.00;;;;;;4885554;29;20025;-90
2021/03/25 01:36:41;;;;;;;;;;;5.80;88.20;;;;;;4879235;29;20024;-89
2021/03/25 01:39:07;;;;;;;67.53;35.88;;;5.80;88.30;;;;;;4878164;29;19919;-89
2021/03/25 01:41:35;;;;;;;68.43;34.83;;;5.80;88.20;;;;;;4891763;29;20028;-89
2021/03/25 01:44:03;;;;;;;66.25;35.47;;;5.80;88.70;;;;;;4877896;29;20033;-89
2021/03/25 01:46:36;;;;;;;66.68;36.03;;;5.80;88.70;;;;;;4878510;29;20391;-90
2021/03/25 01:49:09;;;;;;;63.92;34.17;;;5.80;89.10;;;;;;4883981;29;20044;-89
2021/03/25 01:51:50;;;;;;;66.97;36.42;;;5.80;88.80;;;;;;4877313;29;20036;-90
2021/03/25 01:54:30;;;;;;;;;;;5.80;88.60;;;;;;4866020;29;20041;-89
2021/03/25 01:57:23;;;;;;;62.15;31.98;;;5.80;88.90;;;;;;4877907;29;19927;-90
2021/03/25 02:00:07;;;;;;;64.93;35.53;;;5.80;88.80;;;;;;4877749;29;20032;-89
2021/03/25 02:02:51;;;;;;;66.53;35.00;;;5.80;88.40;;;;;;4882806;29;20119;-90
2021/03/25 02:05:17;;;;;;;64.03;33.75;;;5.80;88.70;;;;;;4859278;29;20036;-89
2021/03/25 02:08:10;;;;;;;62.10;33.53;;;5.80;88.80;;;;;;4877563;29;20033;-90
2021/03/25 02:10:49;;;;;;;61.85;33.22;;;5.80;88.90;;;;;;4877582;29;20222;-90
2021/03/25 02:13:18;;;;;;;64.03;34.88;;;5.80;88.70;;;;;;4856763;29;20033;-90
2021/03/25 02:15:52;;;;;;;67.10;34.63;;;5.90;89.00;;;;;;4875740;29;20491;-90
2021/03/25 02:18:26;;;;;;;63.80;34.60;;;5.90;88.00;;;;;;4868190;29;20045;-89
2021/03/25 02:21:04;;;;;;;65.47;34.67;;;5.90;88.10;;;;;;4877540;29;20029;-89
2021/03/25 02:23:44;;;;;;;61.45;33.20;;;5.90;87.60;;;;;;4860172;29;20053;-89
2021/03/25 02:26:31;;;;;;;61.35;32.17;;;5.90;88.10;;;;;;4885827;29;20444;-91
2021/03/25 02:29:17;;;;;;;60.50;32.15;;;6.00;87.70;;;;;;4878784;29;20049;-89
2021/03/25 02:31:48;;;;;;;63.58;33.15;;;6.00;87.20;;;;;;4878660;29;20115;-89
2021/03/25 02:34:32;;;;;;;70.10;34.75;;;6.00;87.60;;;;;;4880609;29;20025;-89
2021/03/25 02:37:08;;;;;;;67.93;33.80;;;5.90;87.50;;;;;;4878171;29;20085;-90
2021/03/25 02:39:50;;;;;;;61.75;34.03;;;5.80;87.50;;;;;;4862084;29;20029;-90
2021/03/25 02:42:19;;;;;;;62.20;34.25;;;5.80;88.50;;;;;;4860437;29;20042;-91
2021/03/25 02:44:55;;;;;;;66.85;35.95;;;5.70;88.50;;;;;;4872633;29;20396;-90
2021/03/25 02:47:23;;;;;;;69.72;36.17;;;5.70;88.50;;;;;;4870669;29;20032;-90
2021/03/25 02:50:02;;;;;;;65.10;35.75;;;5.70;88.30;;;;;;4880218;29;20070;-90
2021/03/25 02:52:35;;;;;;;67.03;34.10;;;5.70;88.90;;;;;;4852692;29;20061;-90
2021/03/25 02:55:07;;;;;;;60.75;34.95;;;5.70;88.90;;;;;;4877545;29;20120;-89
2021/03/25 02:57:54;;;;;;;60.88;34.00;;;5.70;89.00;;;;;;4880899;29;20052;-90
2021/03/25 03:00:27;;;;;;;64.32;35.13;;;5.60;89.00;;;;;;4877270;29;20583;-90
2021/03/25 03:03:00;;;;;;;66.60;35.58;;;5.60;89.40;;;;;;4880707;29;20070;-91
2021/03/25 03:05:27;;;;;;;63.38;35.75;;;5.70;89.00;;;;;;4877800;29;20041;-91
2021/03/25 03:08:12;;;;;;;60.85;33.15;;;5.70;89.00;;;;;;4878353;29;20052;-90
2021/03/25 03:10:56;;;;;;;67.10;36.50;;;5.70;89.20;;;;;;4860361;29;20025;-90
2021/03/25 03:13:24;;;;;;;56.58;31.40;;;5.70;89.10;;;;;;4871500;29;20029;-90
2021/03/25 03:16:00;;;;;;;61.38;34.55;;;5.60;89.00;;;;;;4875151;29;20053;-91
2021/03/25 03:18:41;;;;;;;67.00;36.20;;;5.60;88.70;;;;;;4869423;29;20033;-90
2021/03/25 03:21:30;;;;;;;60.88;35.03;;;5.60;88.80;;;;;;4876968;29;20170;-90
2021/03/25 03:23:56;;;;;;;65.72;37.55;;;5.60;89.10;;;;;;4875874;29;20096;-90
2021/03/25 03:26:44;;;;;;;62.22;35.22;;;5.60;89.30;;;;;;4877270;29;20077;-90
2021/03/25 03:29:10;;;;;;;67.38;35.97;;;5.60;89.50;;;;;;4877539;29;20029;-90
2021/03/25 03:31:46;;;;;;;62.35;34.70;;;5.50;89.70;;;;;;4881664;29;20487;-89
2021/03/25 03:34:37;;;;;;;66.82;34.92;;;5.50;90.00;;;;;;4884361;29;20037;-90
2021/03/25 03:37:09;;;;;;;71.18;37.17;;;5.60;89.50;;;;;;4882646;29;20127;-90
2021/03/25 03:39:37;;;;;;;59.97;34.10;;;5.70;88.50;;;;;;4886090;29;20029;-90
2021/03/25 03:42:09;;;;;;;58.75;33.67;;;5.70;89.00;;;;;;4870099;29;20036;-90
2021/03/25 03:44:44;;;;;;;64.75;34.35;;;5.70;88.70;;;;;;4879095;29;20040;-89
2021/03/25 03:47:12;;;;;;;59.25;31.85;;;5.80;88.10;;;;;;4879610;29;20037;-89
2021/03/25 03:49:49;;;;;;;62.80;34.33;;;5.80;88.30;;;;;;4884289;29;20492;-90
2021/03/25 03:52:22;;;;;;;63.00;34.60;;;5.70;88.60;;;;;;4863565;29;20492;-89
2021/03/25 03:54:53;;;;;;;59.53;33.15;;;5.70;88.70;;;;;;4879403;29;20105;-90
2021/03/25 03:57:41;;;;;;;68.65;36.72;;;5.60;88.20;;;;;;4865030;29;20053;-89
2021/03/25 04:00:10;;;;;;;63.17;36.13;;;5.60;88.70;;;;;;4879692;29;20614;-90
2021/03/25 04:03:04;;;;;;;61.20;34.83;;;5.50;89.80;;;;;;4891644;29;20064;-90
2021/03/25 04:05:42;;;;;;;64.43;34.15;;;5.50;89.80;;;;;;4877727;29;20053;-90
2021/03/25 04:08:34;;;;;;;62.97;35.63;;;5.40;90.00;;;;;;4878888;29;20057;-89
2021/03/25 04:11:14;;;;;;;56.10;32.58;;;5.40;89.50;;;;;;4881760;29;20133;-91
2021/03/25 04:13:44;;;;;;;61.67;34.13;;;5.40;89.90;;;;;;4865387;29;20715;-91
2021/03/25 04:16:11;;;;;;;58.63;32.60;;;5.50;89.60;;;;;;4863317;29;20021;-90
2021/03/25 04:19:01;;;;;;;65.60;33.95;;;5.60;88.80;;;;;;4864211;29;20297;-90
2021/03/25 04:21:32;;;;;;;59.95;32.70;;;5.60;88.60;;;;;;4860487;29;20036;-89
2021/03/25 04:24:02;;;;;;;61.17;34.40;;;5.60;89.30;;;;;;4850051;29;20421;-90
2021/03/25 04:26:37;;;;;;;62.92;34.50;;;5.50;89.00;;;;;;4859993;29;20044;-90
2021/03/25 04:29:06;;;;;;;63.17;34.63;;;5.50;89.20;;;;;;4859325;29;20041;-90
2021/03/25 04:31:32;;;;;;;60.65;33.92;;;5.50;89.40;;;;;;4840371;29;20499;-89
2021/03/25 04:34:00;;;;;;;57.92;33.17;;;5.50;89.30;;;;;;4846239;29;20557;-90
2021/03/25 04:36:31;;;;;;;57.90;29.98;;;5.50;89.50;;;;;;4830946;29;20041;-90
2021/03/25 04:38:59;;;;;;;57.53;31.25;;;5.50;89.40;;;;;;4846214;29;20757;-90
2021/03/25 04:41:25;;;;;;;57.13;32.13;;;5.50;89.60;;;;;;4858170;29;20042;-91
2021/03/25 04:44:01;;;;;;;62.10;34.08;;;5.50;89.40;;;;;;4832754;29;20036;-90
2021/03/25 04:46:49;;;;;;;59.25;32.72;;;5.50;89.40;;;;;;4858577;29;20115;-91
2021/03/25 04:49:30;;;;;;;65.88;35.45;;;5.40;89.70;;;;;;4851678;29;20037;-89
2021/03/25 04:51:58;;;;;;;58.25;33.83;;;5.30;90.00;;;;;;4862202;29;20042;-89
2021/03/25 04:54:34;;;;;;;58.72;32.80;;;5.30;90.20;;;;;;4843052;29;20094;-91
2021/03/25 04:57:06;;;;;;;59.90;32.78;;;5.30;90.40;;;;;;4857814;29;20050;-90
2021/03/25 04:59:35;;;;;;;61.50;33.60;;;5.30;90.20;;;;;;4875410;29;20041;-89
2021/03/25 05:02:02;;;;;;;61.88;33.75;;;5.30;90.10;;;;;;4878712;29;20037;-90
2021/03/25 05:04:28;;;;;;;58.65;32.30;;;5.40;90.20;;;;;;4879785;29;20025;-90
2021/03/25 05:07:00;;;;;;;55.80;31.48;;;5.50;90.00;;;;;;4879159;29;20058;-90
2021/03/25 05:09:28;;;;;;;58.45;31.00;;;5.70;89.50;;;;;;4859911;29;20029;-89
2021/03/25 05:11:54;;;;;;;58.22;30.13;;;5.70;89.00;;;;;;4862575;29;20033;-91
2021/03/25 05:14:25;;;;;;;56.13;32.38;;;5.70;88.90;;;;;;4878955;29;20037;-90
2021/03/25 05:16:51;;;;;;;53.47;31.30;;;5.70;88.70;;;;;;4878847;29;20097;-89
2021/03/25 05:19:17;;;;;;;62.42;32.85;;;5.60;89.20;;;;;;4878785;29;20037;-89
2021/03/25 05:22:05;;;;;;;62.55;36.20;;;5.60;89.60;;;;;;4878878;29;20041;-90
2021/03/25 05:25:00;;;;;;;62.40;33.67;;;5.50;89.40;;;;;;4861899;29;20078;-90
2021/03/25 05:27:56;;;;;;;62.92;36.75;;;5.50;89.80;;;;;;4877123;29;20116;-91
2021/03/25 05:30:26;;;;;;;60.60;34.38;;;5.50;89.80;;;;;;4879273;29;20029;-90
2021/03/25 05:32:57;;;;;;;59.38;35.15;;;5.50;90.10;;;;;;4879372;29;20029;-89
2021/03/25 05:35:24;;;;;;;;;;;5.60;90.00;;;;;;4877180;29;20029;-90
2021/03/25 05:37:50;;;;;;;58.00;34.78;;;5.60;90.00;;;;;;4877653;29;19920;-90
2021/03/25 05:40:56;;;;;;;61.47;35.28;;;5.60;89.70;;;;;;4877924;29;20040;-90
2021/03/25 05:43:56;;;;;;;57.88;33.17;;;5.60;90.00;;;;;;4878925;29;20045;-90
2021/03/25 05:47:07;;;;;;;66.78;36.22;;;5.60;90.30;;;;;;4878753;29;20108;-90
2021/03/25 05:49:45;;;;;;;59.85;33.88;;;5.60;90.10;;;;;;4874037;29;20036;-90
2021/03/25 05:52:46;;;;;;;61.10;35.92;;;5.50;90.30;;;;;;4878769;29;20033;-90
2021/03/25 05:55:41;;;;;;;65.82;37.22;;;5.60;90.20;;;;;;4853190;29;20060;-90
2021/03/25 05:58:30;;;;;;;71.38;37.70;;;5.60;90.00;;;;;;4877516;29;20520;-91
2021/03/25 06:01:17;;;;;;;61.08;36.90;;;5.60;90.30;;;;;;4882054;29;20057;-90
2021/03/25 06:04:12;;;;;;;66.45;37.85;;;5.60;90.30;;;;;;4878898;29;20025;-90
2021/03/25 06:06:57;;;;;;;62.13;36.83;;;5.70;90.20;;;;;;4879575;29;20025;-90
2021/03/25 06:09:22;;;;;;;65.63;39.67;;;5.70;90.40;;;;;;4859913;29;20041;-90
2021/03/25 06:12:16;;;;;;;68.18;38.88;;;5.70;90.10;;;;;;4864590;29;20029;-90
2021/03/25 06:15:16;;;;;;;63.15;37.28;;;5.80;90.30;;;;;;4884874;29;20184;-90
2021/03/25 06:18:10;;;;;;;63.47;37.10;;;5.80;90.10;;;;;;4874498;29;20393;-90
2021/03/25 06:21:14;;;;;;;62.67;38.05;;;5.90;89.80;;;;;;4875167;29;20069;-90
2021/03/25 06:23:48;;;;;;;70.70;39.40;;;5.90;89.60;;;;;;4849170;29;20144;-90
2021/03/25 06:26:25;;;;;;;66.85;40.45;;;6.00;89.20;;;;;;4857065;29;20041;-91
2021/03/25 06:28:55;;;;;;;65.75;38.55;;;6.00;88.80;;;;;;4857294;29;20057;-90
2021/03/25 06:31:50;;;;;;;71.55;40.05;;;6.10;88.40;;;;;;4857542;29;20065;-90
2021/03/25 06:34:38;;;;;;;69.88;39.85;;;6.20;88.50;;;;;;4858390;29;20038;-90
2021/03/25 06:37:09;;;;;;;70.93;38.75;;;6.30;88.40;;;;;;4857446;29;20150;-89
2021/03/25 06:39:55;;;;;;;69.47;38.90;;;6.30;88.60;;;;;;4852819;29;20095;-90
2021/03/25 06:42:49;;;;;;;70.22;40.95;;;6.30;87.60;;;;;;4858325;29;20796;-89
2021/03/25 06:45:41;;;;;;;63.15;38.83;;;6.40;88.30;;;;;;4834471;29;20088;-90
2021/03/25 06:48:28;;;;;;;63.80;38.10;;;6.40;87.80;;;;;;4836744;29;20046;-91
2021/03/25 06:50:54;;;;;;;69.47;40.40;;;6.40;87.20;;;;;;4836431;29;20045;-90
2021/03/25 06:53:25;;;;;;;70.07;40.80;;;6.40;87.30;;;;;;4837733;29;20041;-90
2021/03/25 06:56:01;;;;;;;70.28;40.63;;;6.50;86.40;;;;;;4845929;29;20532;-90
2021/03/25 06:58:36;;;;;;;70.07;39.88;;;6.50;87.30;;;;;;4817327;29;20044;-90
2021/03/25 07:01:20;;;;;;;67.07;40.33;;;6.60;86.80;;;;;;4836958;29;20495;-90
2021/03/25 07:03:50;;;;;;;65.30;38.63;;;6.60;86.00;;;;;;4840092;29;20516;-91
2021/03/25 07:06:16;;;;;;;60.72;39.10;;;6.60;86.10;;;;;;4839146;29;20068;-91
2021/03/25 07:08:42;;;;;;;66.78;39.55;;;6.60;86.70;;;;;;4852876;29;20073;-90
2021/03/25 07:11:16;;;;;;;66.32;39.03;;;6.60;85.80;;;;;;4840753;29;20082;-91
2021/03/25 07:13:46;;;;;;;67.55;39.35;;;6.50;85.90;;;;;;4841414;29;20378;-91
2021/03/25 07:16:13;;;;;;;67.50;39.75;;;6.60;86.10;;;;;;4842521;29;20042;-91
2021/03/25 07:18:57;;;;;;;66.53;40.17;;;6.70;85.90;;;;;;4842370;29;20045;-90
2021/03/25 07:21:27;;;;;;;68.45;40.08;;;6.70;85.20;;;;;;4851271;29;20124;-91
2021/03/25 07:23:55;;;;;;;69.10;41.50;;;6.70;85.30;;;;;;4885188;29;20503;-91
2021/03/25 07:26:29;;;;;;;65.55;41.25;;;6.70;85.10;;;;;;4880848;29;20085;-91
2021/03/25 07:29:20;;;;;;;68.20;41.90;;;6.80;85.60;;;;;;4880483;29;20108;-92
2021/03/25 07:32:17;;;;;;;71.47;41.75;;;6.80;84.60;;;;;;4874966;29;20488;-90
2021/03/25 07:34:49;;;;;;;70.40;42.15;;;6.80;84.50;;;;;;4880419;29;20067;-90
2021/03/25 07:37:32;;;;;;;68.88;39.35;;;6.80;85.00;;;;;;4866808;29;20044;-90
2021/03/25 07:40:06;;;;;;;64.43;38.60;;;6.90;84.70;;;;;;4880372;29;20039;-91
2021/03/25 07:42:38;;;;;;;65.20;40.22;;;6.90;84.50;;;;;;4878067;29;20056;-91
2021/03/25 07:45:36;;;;;;;60.22;39.40;;;7.00;83.70;;;;;;4863875;29;20506;-91
2021/03/25 07:48:25;;;;;;;61.40;38.28;;;7.10;82.70;;;;;;4842988;29;20050;-89
2021/03/25 07:51:11;;;;;;;60.55;38.72;;;7.10;82.10;;;;;;4837408;29;20067;-91
2021/03/25 07:53:38;;;;;;;61.17;37.28;;;7.10;81.10;;;;;;4859961;29;20034;-90
2021/03/25 07:56:16;;;;;;;63.10;37.15;;;7.20;80.10;;;;;;4844278;29;20049;-91
2021/03/25 07:58:44;;;;;;;59.08;36.88;;;7.30;80.40;;;;;;4847285;29;20144;-89
2021/03/25 08:01:22;;;;;;;65.10;37.50;;;7.40;80.50;;;;;;4837436;29;20148;-90
2021/03/25 08:03:50;;;;;;;63.03;37.38;;;7.40;81.00;;;;;;4863334;29;20108;-91
2021/03/25 08:06:28;;;;;;;62.30;38.08;;;7.40;80.10;;;;;;4855558;29;20030;-91
2021/03/25 08:09:12;;;;;;;60.42;36.35;;;7.50;79.50;;;;;;4850109;29;20040;-91
2021/03/25 08:12:00;;;;;;;61.78;38.50;;;7.50;79.00;;;;;;4860395;29;20053;-91
2021/03/25 08:14:32;;;;;;;63.30;37.53;;;7.60;78.70;;;;;;4858215;29;20124;-90
2021/03/25 08:17:27;;;;;;;58.95;36.20;;;7.60;79.00;;;;;;4844758;29;20201;-91
2021/03/25 08:20:33;;;;;;;57.20;36.90;;;7.70;78.20;;;;;;4836153;29;20121;-90
2021/03/25 08:22:59;;;;;;;67.65;38.38;;;7.70;78.50;;;;;;4857227;29;20062;-91
2021/03/25 08:25:39;;;;;;;65.13;36.95;;;7.70;78.00;;;;;;4869626;29;20033;-89
2021/03/25 08:28:21;;;;;;;66.57;38.15;;;7.80;78.20;;;;;;4873463;29;20108;-89
2021/03/25 08:31:18;;;;;;;67.63;39.28;;;7.70;77.80;;;;;;4878975;29;20036;-88
2021/03/25 08:34:03;;;;;;;62.65;38.80;;;7.80;77.60;;;;;;4876539;29;20041;-91
2021/03/25 08:37:05;;;;;;;66.28;39.15;;;7.80;77.80;;;;;;4862783;29;20612;-91
2021/03/25 08:39:44;;;;;;;65.28;39.13;;;8.00;78.00;;;;;;4882969;29;20032;-91
2021/03/25 08:42:12;;;;;;;58.55;36.72;;;8.10;76.30;;;;;;4879526;29;20551;-91
2021/03/25 08:44:44;;;;;;;59.47;37.47;;;8.20;76.40;;;;;;4883131;29;20025;-91
2021/03/25 08:47:39;;;;;;;54.15;35.05;;;8.30;75.80;;;;;;4859645;29;20095;-90
2021/03/25 08:50:36;;;;;;;61.45;36.67;;;8.30;75.40;;;;;;4872086;29;20123;-91
2021/03/25 08:53:16;;;;;;;70.05;40.45;;;8.50;74.80;;;;;;4859298;29;20029;-90
2021/03/25 08:55:42;;;;;;;60.55;39.67;;;8.50;72.90;;;;;;4877032;29;20032;-90
2021/03/25 08:58:14;;;;;;;65.40;41.35;;;8.40;72.10;;;;;;4858048;29;20196;-91
2021/03/25 09:00:43;;;;;;;62.25;39.83;;;8.50;71.80;;;;;;4859245;29;20025;-91
2021/03/25 09:03:37;;;;;;;64.50;40.08;;;8.60;71.90;;;;;;4871248;29;20029;-91
2021/03/25 09:06:31;;;;;;;66.78;40.28;;;8.70;72.90;;;;;;4871192;29;20051;-92
2021/03/25 09:09:21;;;;;;;64.70;39.85;;;8.80;72.10;;;;;;4876049;29;20041;-90
2021/03/25 09:11:47;;;;;;;60.47;38.63;;;8.80;72.10;;;;;;4876964;29;20029;-90
2021/03/25 09:14:20;;;;;;;59.60;38.63;;;8.80;72.00;;;;;;4876309;29;20025;-91
2021/03/25 09:16:47;;;;;;;69.05;40.80;;;8.90;72.60;;;;;;4863823;29;20032;-91
2021/03/25 09:19:47;;;;;;;63.92;39.83;;;9.00;72.60;;;;;;4879600;29;20117;-90
2021/03/25 09:22:37;;;;;;;58.92;38.05;;;9.10;70.10;;;;;;4873132;29;20037;-91
2021/03/25 09:25:20;;;;;;;60.58;39.85;;;9.10;69.80;;;;;;4858094;29;20484;-91
2021/03/25 09:28:07;;;;;;;61.35;38.05;;;9.10;70.10;;;;;;4878427;29;20037;-89
2021/03/25 09:30:36;;;;;;;62.90;39.53;;;9.20;69.30;;;;;;4876306;29;20467;-90
2021/03/25 09:33:42;;;;;;;58.80;38.50;;;9.20;69.10;;;;;;4860391;29;20021;-90
2021/03/25 09:36:34;;;;;;;59.33;38.55;;;9.20;68.20;;;;;;4874375;29;20037;-90
2021/03/25 09:39:01;;;;;;;58.83;38.88;;;9.30;68.60;;;;;;4853704;29;20052;-90
2021/03/25 09:41:31;;;;;;;60.83;39.17;;;9.40;69.50;;;;;;4860744;29;20343;-90
2021/03/25 09:44:05;;;;;;;62.03;36.33;;;9.50;67.80;;;;;;4875142;29;20029;-90
2021/03/25 09:46:50;;;;;;;59.38;38.47;;;9.50;67.60;;;;;;4859928;29;20085;-90
2021/03/25 09:49:28;;;;;;;53.85;36.53;;;9.30;67.10;;;;;;4878950;29;20445;-92
2021/03/25 09:54:34;;;;;;;53.88;36.17;;;9.20;68.30;;;;;;4874065;29;20033;-90
2021/03/25 09:57:24;;;;;;;59.75;38.22;;;9.40;68.20;;;;;;4874927;29;20060;-90
2021/03/25 10:00:21;;;;;;;56.10;37.45;;;9.40;67.10;;;;;;4859886;29;20033;-91
2021/03/25 10:02:53;;;;;;;59.50;37.00;;;9.40;67.20;;;;;;4878894;29;20314;-90
2021/03/25 10:05:28;;;;;;;57.03;38.05;;;9.60;66.70;;;;;;4858972;29;20033;-91
2021/03/25 10:07:54;;;;;;;55.65;37.40;;;9.60;66.30;;;;;;4859763;29;20029;-91
2021/03/25 10:10:42;;;;;;;58.28;39.92;;;9.80;66.60;;;;;;4861422;29;20029;-91
2021/03/25 10:13:17;;;;;;;57.45;39.80;;;9.80;66.00;;;;;;4875394;29;20507;-92
2021/03/25 10:15:48;;;;;;;58.80;39.30;;;9.80;65.60;;;;;;4863984;29;20487;-92
2021/03/25 10:18:16;;;;;;;;;;;9.80;67.40;;;;;;4862973;29;20412;-91
2021/03/25 10:20:51;;;;;;;64.78;39.90;;;9.80;66.60;;;;;;4872850;29;19912;-91
2021/03/25 10:23:31;;;;;;;54.92;36.95;;;10.00;66.60;;;;;;4872189;29;20053;-91
2021/03/25 10:26:23;;;;;;;58.63;38.10;;;10.10;65.50;;;;;;4873910;29;20064;-90
2021/03/25 10:28:57;;;;;;;57.28;37.10;;;10.10;65.00;;;;;;4865824;29;20036;-92
2021/03/25 10:31:38;;;;;;;63.38;39.97;;;10.00;65.20;;;;;;4859011;29;20047;-91
2021/03/25 10:34:06;;;;;;;61.70;37.38;;;9.90;65.40;;;;;;4862563;29;20033;-91
2021/03/25 10:36:51;;;;;;;56.03;37.33;;;10.00;65.90;;;;;;4860857;29;20025;-91
2021/03/25 10:39:23;;;;;;;58.53;38.78;;;10.00;64.90;;;;;;4874100;29;20028;-91
2021/03/25 10:41:49;;;;;;;58.10;37.92;;;10.10;65.30;;;;;;4857454;29;20111;-92
2021/03/25 10:44:32;;;;;;;59.05;37.50;;;10.30;64.10;;;;;;4881547;29;20036;-91
2021/03/25 10:47:06;;;;;;;56.70;36.72;;;10.30;63.30;;;;;;4876752;29;20060;-91
2021/03/25 10:49:49;;;;;;;50.35;34.75;;;10.20;65.00;;;;;;4875868;29;20029;-90
2021/03/25 10:52:24;;;;;;;48.63;33.72;;;10.30;64.10;;;;;;4874412;29;20089;-91
2021/03/25 10:54:52;;;;;;;48.80;34.95;;;10.40;63.70;;;;;;4874034;29;20044;-92
2021/03/25 10:57:19;;;;;;;47.80;33.30;;;10.40;62.90;;;;;;4877074;29;20486;-92
2021/03/25 11:00:10;;;;;;;49.15;33.80;;;10.50;62.30;;;;;;4875738;29;20041;-90
2021/03/25 11:02:41;;;;;;;50.58;34.72;;;10.70;62.10;;;;;;4877903;29;20021;-90
2021/03/25 11:05:07;;;;;;;48.67;34.45;;;10.80;61.60;;;;;;4870692;29;20503;-91
2021/03/25 11:07:51;;;;;;;51.33;34.50;;;10.80;61.30;;;;;;4873332;29;20029;-91
2021/03/25 11:10:19;;;;;;;47.15;33.17;;;10.80;61.30;;;;;;4874989;29;20033;-92
2021/03/25 11:12:46;;;;;;;51.90;34.72;;;10.80;61.30;;;;;;4860833;29;20032;-92
2021/03/25 11:15:21;;;;;;;49.28;33.33;;;10.70;61.30;;;;;;4874528;29;20029;-92
2021/03/25 11:17:47;;;;;;;47.08;34.97;;;10.90;60.90;;;;;;4854729;29;20048;-92
2021/03/25 11:20:21;;;;;;;46.85;33.90;;;10.90;60.40;;;;;;4874849;29;20120;-92
2021/03/25 11:22:48;;;;;;;45.65;33.05;;;10.70;60.00;;;;;;4872088;29;20048;-91
2021/03/25 11:25:21;;;;;;;56.17;34.92;;;10.80;60.60;;;;;;4875560;29;20123;-91
2021/03/25 11:27:47;;;;;;;45.85;31.90;;;10.90;60.60;;;;;;4870358;29;20037;-92
2021/03/25 11:30:25;;;;;;;47.35;34.45;;;10.90;58.90;;;;;;4860346;29;20108;-91
2021/03/25 11:32:51;;;;;;;46.78;33.28;;;10.60;60.70;;;;;;4873566;29;20123;-89
2021/03/25 11:35:34;;;;;;;52.20;34.72;;;10.80;60.30;;;;;;4876480;29;20116;-91
2021/03/25 11:38:25;;;;;;;49.75;34.70;;;11.00;60.20;;;;;;4873027;29;20049;-89
2021/03/25 11:41:02;;;;;;;46.58;31.92;;;11.10;59.50;;;;;;4877001;29;20112;-90
2021/03/25 11:43:51;;;;;;;47.78;32.33;;;11.10;58.80;;;;;;4874590;29;20041;-91
2021/03/25 11:46:35;;;;;;;45.70;33.25;;;10.90;58.50;;;;;;4874779;29;20021;-90
2021/03/25 11:49:22;;;;;;;46.08;32.75;;;11.10;58.80;;;;;;4874276;29;20045;-88
2021/03/25 11:52:01;;;;;;;43.97;31.52;;;11.10;58.60;;;;;;4869796;29;20054;-90
2021/03/25 11:54:33;;;;;;;45.53;31.98;;;11.00;58.40;;;;;;4869843;29;20037;-89
2021/03/25 11:57:10;;;;;;;43.15;32.33;;;11.20;58.80;;;;;;4875107;29;20037;-90
2021/03/25 11:59:40;;;;;;;40.75;30.52;;;11.30;59.20;;;;;;4879485;29;20028;-89
2021/03/25 12:02:28;;;;;;;47.42;33.00;;;11.40;58.30;;;;;;4863966;29;20457;-91
2021/03/25 12:04:54;;;;;;;44.08;32.15;;;11.40;57.40;;;;;;4876872;29;20060;-89
2021/03/25 12:07:25;;;;;;;47.97;32.45;;;11.40;58.00;;;;;;4875660;29;20026;-90
2021/03/25 12:10:15;;;;;;;45.10;30.23;;;11.50;58.30;;;;;;4880093;29;20443;-92
2021/03/25 12:12:43;;;;;;;44.23;31.83;;;11.40;58.00;;;;;;4874585;29;20506;-90
2021/03/25 12:15:09;;;;;;;44.80;32.15;;;11.30;57.90;;;;;;4861768;29;20494;-89
2021/03/25 12:17:35;;;;;;;48.17;34.08;;;11.10;58.30;;;;;;4877985;29;20109;-91
2021/03/25 12:20:01;;;;;;;46.53;33.53;;;11.00;58.00;;;;;;4875384;29;20112;-88
2021/03/25 12:22:31;;;;;;;45.17;32.33;;;11.20;57.90;;;;;;4875232;29;20132;-88
2021/03/25 12:24:57;;;;;;;43.93;32.17;;;11.20;58.40;;;;;;4874807;29;20029;-86
2021/03/25 12:27:28;;;;;;;44.45;32.65;;;11.00;58.10;;;;;;4875762;29;20318;-88
2021/03/25 12:29:55;;;;;;;51.88;33.65;;;10.80;58.90;;;;;;4880483;29;20033;-89
2021/03/25 12:32:24;;;;;;;47.63;32.40;;;10.80;60.10;;;;;;4878486;29;20558;-91
2021/03/25 12:34:50;;;;;;;48.83;32.30;;;10.80;60.10;;;;;;4879499;29;20095;-91
2021/03/25 12:37:17;;;;;;;51.13;34.22;;;10.80;59.00;;;;;;4873874;29;20021;-90
2021/03/25 12:39:42;;;;;;;45.67;33.10;;;10.80;59.20;;;;;;4874513;29;20037;-90
2021/03/25 12:42:10;;;;;;;45.28;31.98;;;10.90;59.20;;;;;;4878639;29;20025;-90
2021/03/25 12:44:36;;;;;;;48.60;33.13;;;11.00;58.40;;;;;;4877481;29;20130;-89
2021/03/25 12:47:03;;;;;;;47.95;33.05;;;11.00;59.20;;;;;;4877221;29;20115;-89
2021/03/25 12:49:28;;;;;;;41.45;30.33;;;11.00;59.10;;;;;;4860707;29;20539;-90
2021/03/25 12:51:54;;;;;;;110.63;36.40;;;11.00;58.70;;;;;;4870526;29;20112;-91
2021/03/25 12:54:20;;;;;;;50.53;32.90;;;11.00;60.40;;;;;;4875176;29;20033;-91
2021/03/25 12:56:46;;;;;;;46.13;32.50;;;11.20;60.00;;;;;;4878103;29;20075;-91
2021/03/25 12:59:15;;;;;;;42.13;31.52;;;11.30;59.20;;;;;;4874645;29;20089;-90
2021/03/25 13:01:41;;;;;;;43.00;31.02;;;11.30;59.20;;;;;;4878975;29;20048;-91
2021/03/25 13:04:09;;;;;;;39.88;31.25;;;11.40;59.60;;;;;;4875126;29;20029;-90
2021/03/25 13:06:37;;;;;;;44.80;32.75;;;11.40;59.60;;;;;;4876776;29;20072;-91
2021/03/25 13:09:04;;;;;;;44.50;32.90;;;11.40;58.80;;;;;;4876470;29;20045;-91
2021/03/25 13:11:31;;;;;;;44.97;32.30;;;11.50;59.00;;;;;;4877357;29;20134;-91
2021/03/25 13:13:57;;;;;;;42.80;33.50;;;11.50;59.20;;;;;;4871629;29;20228;-88
2021/03/25 13:16:24;;;;;;;48.92;31.75;;;11.60;58.80;;;;;;4874949;29;20028;-89
2021/03/25 13:18:50;;;;;;;49.25;34.83;;;11.60;59.20;;;;;;4871378;29;20118;-89
2021/03/25 13:21:17;;;;;;;43.97;32.53;;;11.60;58.10;;;;;;4873296;29;20029;-89